sensor_id;sensor_type;location;lat;lon;timestamp;P1;durP1;ratioP1;P2;durP2;ratioP2
6689;SDS011;3382;51.576;8.076;2022-07-22T00:00:57;4.83;;;4.33;;
6689;SDS011;3382;51.576;8.076;2022-07-22T00:03:22;7.67;;;5.00;;
6689;SDS011;3382;51.576;8.076;2022-07-22T00:05:48;5.73;;;4.80;;
6689;SDS011;3382;51.576;8.076;2022-07-22T00:08:14;4.93;;;4.27;;
6689;SDS011;3382;51.576;8.076;2022-07-22T00:10:40;4.90;;;4.27;;
6689;SDS011;3382;51.576;8.076;2022-07-22T00:13:06;3.67;;;3.37;;
6689;SDS011;3382;51.576;8.076;2022-07-22T00:15:32;3.73;;;2.83;;
6689;SDS011;3382;51.576;8.076;2022-07-22T00:17:58;4.93;;;3.00;;
6689;SDS011;3382;51.576;8.076;2022-07-22T00:20:23;3.73;;;2.63;;
6689;SDS011;3382;51.576;8.076;2022-07-22T00:22:49;4.80;;;3.47;;
6689;SDS011;3382;51.576;8.076;2022-07-22T00:25:15;3.20;;;2.77;;
6689;SDS011;3382;51.576;8.076;2022-07-22T00:27:40;3.90;;;3.20;;
6689;SDS011;3382;51.576;8.076;2022-07-22T00:30:06;3.03;;;2.80;;
6689;SDS011;3382;51.576;8.076;2022-07-22T00:32:33;5.37;;;3.10;;
6689;SDS011;3382;51.576;8.076;2022-07-22T00:34:58;3.10;;;2.80;;
6689;SDS011;3382;51.576;8.076;2022-07-22T00:37:24;5.13;;;3.07;;
6689;SDS011;3382;51.576;8.076;2022-07-22T00:39:50;7.43;;;4.20;;
6689;SDS011;3382;51.576;8.076;2022-07-22T00:42:15;4.90;;;4.40;;
6689;SDS011;3382;51.576;8.076;2022-07-22T00:44:41;9.27;;;4.67;;
6689;SDS011;3382;51.576;8.076;2022-07-22T00:47:07;6.33;;;4.50;;
6689;SDS011;3382;51.576;8.076;2022-07-22T00:49:33;4.90;;;4.30;;
6689;SDS011;3382;51.576;8.076;2022-07-22T00:51:58;3.90;;;3.07;;
6689;SDS011;3382;51.576;8.076;2022-07-22T00:54:24;4.50;;;3.23;;
6689;SDS011;3382;51.576;8.076;2022-07-22T00:56:50;3.60;;;3.30;;
6689;SDS011;3382;51.576;8.076;2022-07-22T00:59:16;5.93;;;3.67;;
6689;SDS011;3382;51.576;8.076;2022-07-22T01:01:42;6.30;;;4.10;;
6689;SDS011;3382;51.576;8.076;2022-07-22T01:04:07;6.80;;;4.23;;
6689;SDS011;3382;51.576;8.076;2022-07-22T01:06:33;3.93;;;3.57;;
6689;SDS011;3382;51.576;8.076;2022-07-22T01:08:59;12.07;;;3.77;;
6689;SDS011;3382;51.576;8.076;2022-07-22T01:11:25;4.10;;;3.37;;
6689;SDS011;3382;51.576;8.076;2022-07-22T01:13:51;4.13;;;3.00;;
6689;SDS011;3382;51.576;8.076;2022-07-22T01:16:18;3.33;;;3.03;;
6689;SDS011;3382;51.576;8.076;2022-07-22T01:18:44;3.37;;;2.90;;
6689;SDS011;3382;51.576;8.076;2022-07-22T01:21:11;4.10;;;2.90;;
6689;SDS011;3382;51.576;8.076;2022-07-22T01:23:38;4.20;;;2.80;;
6689;SDS011;3382;51.576;8.076;2022-07-22T01:26:04;3.30;;;2.73;;
6689;SDS011;3382;51.576;8.076;2022-07-22T01:28:30;6.97;;;3.03;;
6689;SDS011;3382;51.576;8.076;2022-07-22T01:30:57;3.90;;;3.00;;
6689;SDS011;3382;51.576;8.076;2022-07-22T01:33:22;4.07;;;2.87;;
6689;SDS011;3382;51.576;8.076;2022-07-22T01:35:49;4.27;;;3.10;;
6689;SDS011;3382;51.576;8.076;2022-07-22T01:38:15;2.60;;;2.40;;
6689;SDS011;3382;51.576;8.076;2022-07-22T01:40:42;3.20;;;2.53;;
6689;SDS011;3382;51.576;8.076;2022-07-22T01:43:08;3.63;;;2.53;;
6689;SDS011;3382;51.576;8.076;2022-07-22T01:45:35;2.47;;;2.27;;
6689;SDS011;3382;51.576;8.076;2022-07-22T01:48:01;5.73;;;2.90;;
6689;SDS011;3382;51.576;8.076;2022-07-22T01:50:27;3.77;;;2.57;;
6689;SDS011;3382;51.576;8.076;2022-07-22T01:52:53;5.37;;;3.10;;
6689;SDS011;3382;51.576;8.076;2022-07-22T01:55:19;2.77;;;2.57;;
6689;SDS011;3382;51.576;8.076;2022-07-22T01:57:44;3.47;;;2.60;;
6689;SDS011;3382;51.576;8.076;2022-07-22T02:00:10;6.10;;;2.60;;
6689;SDS011;3382;51.576;8.076;2022-07-22T02:02:36;2.90;;;2.60;;
6689;SDS011;3382;51.576;8.076;2022-07-22T02:05:03;3.53;;;2.77;;
6689;SDS011;3382;51.576;8.076;2022-07-22T02:07:30;3.80;;;2.63;;
6689;SDS011;3382;51.576;8.076;2022-07-22T02:09:56;2.47;;;2.27;;
6689;SDS011;3382;51.576;8.076;2022-07-22T02:12:21;3.43;;;2.47;;
6689;SDS011;3382;51.576;8.076;2022-07-22T02:14:47;4.63;;;2.50;;
6689;SDS011;3382;51.576;8.076;2022-07-22T02:17:13;6.77;;;2.50;;
6689;SDS011;3382;51.576;8.076;2022-07-22T02:19:40;7.03;;;2.30;;
6689;SDS011;3382;51.576;8.076;2022-07-22T02:22:06;7.47;;;3.07;;
6689;SDS011;3382;51.576;8.076;2022-07-22T02:24:31;3.37;;;2.93;;
6689;SDS011;3382;51.576;8.076;2022-07-22T02:26:57;2.90;;;2.70;;
6689;SDS011;3382;51.576;8.076;2022-07-22T02:29:23;3.70;;;2.80;;
6689;SDS011;3382;51.576;8.076;2022-07-22T02:31:48;4.63;;;3.00;;
6689;SDS011;3382;51.576;8.076;2022-07-22T02:34:14;3.43;;;3.00;;
6689;SDS011;3382;51.576;8.076;2022-07-22T02:36:40;3.87;;;3.50;;
6689;SDS011;3382;51.576;8.076;2022-07-22T02:39:06;3.37;;;3.07;;
6689;SDS011;3382;51.576;8.076;2022-07-22T02:41:32;3.77;;;3.03;;
6689;SDS011;3382;51.576;8.076;2022-07-22T02:43:58;7.03;;;3.40;;
6689;SDS011;3382;51.576;8.076;2022-07-22T02:46:24;4.07;;;3.00;;
6689;SDS011;3382;51.576;8.076;2022-07-22T02:48:50;3.33;;;3.03;;
6689;SDS011;3382;51.576;8.076;2022-07-22T02:51:16;4.63;;;3.10;;
6689;SDS011;3382;51.576;8.076;2022-07-22T02:53:42;3.50;;;3.20;;
6689;SDS011;3382;51.576;8.076;2022-07-22T02:56:08;3.23;;;2.93;;
6689;SDS011;3382;51.576;8.076;2022-07-22T02:58:33;4.73;;;2.90;;
6689;SDS011;3382;51.576;8.076;2022-07-22T03:00:59;6.40;;;3.27;;
6689;SDS011;3382;51.576;8.076;2022-07-22T03:03:25;3.03;;;2.73;;
6689;SDS011;3382;51.576;8.076;2022-07-22T03:05:50;5.77;;;3.30;;
6689;SDS011;3382;51.576;8.076;2022-07-22T03:08:16;7.20;;;3.67;;
6689;SDS011;3382;51.576;8.076;2022-07-22T03:10:42;4.03;;;3.50;;
6689;SDS011;3382;51.576;8.076;2022-07-22T03:13:08;8.07;;;3.57;;
6689;SDS011;3382;51.576;8.076;2022-07-22T03:15:33;6.23;;;3.90;;
6689;SDS011;3382;51.576;8.076;2022-07-22T03:17:59;6.47;;;4.20;;
6689;SDS011;3382;51.576;8.076;2022-07-22T03:20:25;5.07;;;4.40;;
6689;SDS011;3382;51.576;8.076;2022-07-22T03:22:51;7.73;;;4.40;;
6689;SDS011;3382;51.576;8.076;2022-07-22T03:25:16;5.47;;;4.33;;
6689;SDS011;3382;51.576;8.076;2022-07-22T03:27:42;8.83;;;4.80;;
6689;SDS011;3382;51.576;8.076;2022-07-22T03:30:08;6.20;;;4.67;;
6689;SDS011;3382;51.576;8.076;2022-07-22T03:32:34;6.03;;;4.60;;
6689;SDS011;3382;51.576;8.076;2022-07-22T03:35:00;7.00;;;4.67;;
6689;SDS011;3382;51.576;8.076;2022-07-22T03:37:25;11.63;;;4.57;;
6689;SDS011;3382;51.576;8.076;2022-07-22T03:39:51;5.87;;;4.40;;
6689;SDS011;3382;51.576;8.076;2022-07-22T03:42:17;5.63;;;4.47;;
6689;SDS011;3382;51.576;8.076;2022-07-22T03:44:42;5.27;;;3.93;;
6689;SDS011;3382;51.576;8.076;2022-07-22T03:47:08;7.97;;;3.83;;
6689;SDS011;3382;51.576;8.076;2022-07-22T03:49:34;4.97;;;4.03;;
6689;SDS011;3382;51.576;8.076;2022-07-22T03:51:59;6.33;;;4.60;;
6689;SDS011;3382;51.576;8.076;2022-07-22T03:54:25;6.10;;;4.33;;
6689;SDS011;3382;51.576;8.076;2022-07-22T03:56:51;5.40;;;3.73;;
6689;SDS011;3382;51.576;8.076;2022-07-22T03:59:16;5.83;;;4.00;;
6689;SDS011;3382;51.576;8.076;2022-07-22T04:01:42;3.93;;;3.47;;
6689;SDS011;3382;51.576;8.076;2022-07-22T04:04:08;6.00;;;3.57;;
6689;SDS011;3382;51.576;8.076;2022-07-22T04:06:34;5.30;;;3.70;;
6689;SDS011;3382;51.576;8.076;2022-07-22T04:08:59;4.43;;;3.77;;
6689;SDS011;3382;51.576;8.076;2022-07-22T04:11:28;4.93;;;3.60;;
6689;SDS011;3382;51.576;8.076;2022-07-22T04:13:53;6.73;;;4.30;;
6689;SDS011;3382;51.576;8.076;2022-07-22T04:16:19;5.27;;;3.40;;
6689;SDS011;3382;51.576;8.076;2022-07-22T04:18:45;7.87;;;3.87;;
6689;SDS011;3382;51.576;8.076;2022-07-22T04:21:13;5.80;;;3.80;;
6689;SDS011;3382;51.576;8.076;2022-07-22T04:23:39;6.77;;;4.30;;
6689;SDS011;3382;51.576;8.076;2022-07-22T04:26:05;9.03;;;4.87;;
6689;SDS011;3382;51.576;8.076;2022-07-22T04:28:32;5.53;;;4.00;;
6689;SDS011;3382;51.576;8.076;2022-07-22T04:31:00;8.80;;;4.20;;
6689;SDS011;3382;51.576;8.076;2022-07-22T04:33:27;5.17;;;3.97;;
6689;SDS011;3382;51.576;8.076;2022-07-22T04:35:54;7.20;;;4.03;;
6689;SDS011;3382;51.576;8.076;2022-07-22T04:38:20;4.77;;;3.80;;
6689;SDS011;3382;51.576;8.076;2022-07-22T04:40:46;4.80;;;3.57;;
6689;SDS011;3382;51.576;8.076;2022-07-22T04:43:12;5.87;;;4.10;;
6689;SDS011;3382;51.576;8.076;2022-07-22T04:45:37;5.77;;;3.13;;
6689;SDS011;3382;51.576;8.076;2022-07-22T04:48:03;8.83;;;4.00;;
6689;SDS011;3382;51.576;8.076;2022-07-22T04:50:32;4.80;;;3.87;;
6689;SDS011;3382;51.576;8.076;2022-07-22T04:53:00;5.70;;;3.97;;
6689;SDS011;3382;51.576;8.076;2022-07-22T04:55:26;7.37;;;3.83;;
6689;SDS011;3382;51.576;8.076;2022-07-22T04:57:51;2.03;;;1.83;;
6689;SDS011;3382;51.576;8.076;2022-07-22T05:00:19;6.63;;;2.83;;
6689;SDS011;3382;51.576;8.076;2022-07-22T05:02:45;4.17;;;2.50;;
6689;SDS011;3382;51.576;8.076;2022-07-22T05:05:11;2.77;;;2.30;;
6689;SDS011;3382;51.576;8.076;2022-07-22T05:07:37;4.70;;;2.53;;
6689;SDS011;3382;51.576;8.076;2022-07-22T05:10:03;3.37;;;2.30;;
6689;SDS011;3382;51.576;8.076;2022-07-22T05:12:29;6.50;;;3.60;;
6689;SDS011;3382;51.576;8.076;2022-07-22T05:14:55;5.30;;;3.50;;
6689;SDS011;3382;51.576;8.076;2022-07-22T05:17:20;7.97;;;3.40;;
6689;SDS011;3382;51.576;8.076;2022-07-22T05:19:46;8.27;;;3.73;;
6689;SDS011;3382;51.576;8.076;2022-07-22T05:22:12;9.93;;;3.80;;
6689;SDS011;3382;51.576;8.076;2022-07-22T05:24:37;6.57;;;3.70;;
6689;SDS011;3382;51.576;8.076;2022-07-22T05:27:03;5.93;;;3.70;;
6689;SDS011;3382;51.576;8.076;2022-07-22T05:29:29;7.83;;;3.73;;
6689;SDS011;3382;51.576;8.076;2022-07-22T05:31:54;5.47;;;3.60;;
6689;SDS011;3382;51.576;8.076;2022-07-22T05:34:21;8.07;;;3.70;;
6689;SDS011;3382;51.576;8.076;2022-07-22T05:36:46;8.90;;;3.63;;
6689;SDS011;3382;51.576;8.076;2022-07-22T05:39:12;7.67;;;3.83;;
6689;SDS011;3382;51.576;8.076;2022-07-22T05:41:38;10.23;;;4.27;;
6689;SDS011;3382;51.576;8.076;2022-07-22T05:44:04;5.13;;;3.90;;
6689;SDS011;3382;51.576;8.076;2022-07-22T05:46:29;6.70;;;4.17;;
6689;SDS011;3382;51.576;8.076;2022-07-22T05:48:55;6.10;;;4.00;;
6689;SDS011;3382;51.576;8.076;2022-07-22T05:51:21;7.97;;;3.73;;
6689;SDS011;3382;51.576;8.076;2022-07-22T05:53:47;6.07;;;3.60;;
6689;SDS011;3382;51.576;8.076;2022-07-22T05:56:13;7.63;;;3.87;;
6689;SDS011;3382;51.576;8.076;2022-07-22T05:58:39;7.23;;;4.30;;
6689;SDS011;3382;51.576;8.076;2022-07-22T06:01:06;8.70;;;3.93;;
6689;SDS011;3382;51.576;8.076;2022-07-22T06:03:32;5.43;;;3.60;;
6689;SDS011;3382;51.576;8.076;2022-07-22T06:05:58;4.03;;;3.20;;
6689;SDS011;3382;51.576;8.076;2022-07-22T06:08:26;5.03;;;3.63;;
6689;SDS011;3382;51.576;8.076;2022-07-22T06:10:52;7.07;;;3.67;;
6689;SDS011;3382;51.576;8.076;2022-07-22T06:13:18;6.53;;;3.57;;
6689;SDS011;3382;51.576;8.076;2022-07-22T06:15:44;6.83;;;3.60;;
6689;SDS011;3382;51.576;8.076;2022-07-22T06:18:09;4.17;;;3.70;;
6689;SDS011;3382;51.576;8.076;2022-07-22T06:20:35;7.87;;;3.33;;
6689;SDS011;3382;51.576;8.076;2022-07-22T06:33:56;5.57;;;4.30;;
6689;SDS011;3382;51.576;8.076;2022-07-22T06:36:22;7.30;;;4.37;;
6689;SDS011;3382;51.576;8.076;2022-07-22T06:38:48;7.23;;;4.83;;
6689;SDS011;3382;51.576;8.076;2022-07-22T06:41:13;8.97;;;4.93;;
6689;SDS011;3382;51.576;8.076;2022-07-22T06:43:42;7.37;;;4.63;;
6689;SDS011;3382;51.576;8.076;2022-07-22T06:46:10;4.50;;;4.00;;
6689;SDS011;3382;51.576;8.076;2022-07-22T06:48:36;5.70;;;4.30;;
6689;SDS011;3382;51.576;8.076;2022-07-22T06:51:02;3.80;;;2.50;;
6689;SDS011;3382;51.576;8.076;2022-07-22T06:53:28;6.93;;;2.60;;
6689;SDS011;3382;51.576;8.076;2022-07-22T06:55:53;6.47;;;2.63;;
6689;SDS011;3382;51.576;8.076;2022-07-22T06:58:19;6.57;;;2.67;;
6689;SDS011;3382;51.576;8.076;2022-07-22T07:00:45;6.87;;;2.70;;
6689;SDS011;3382;51.576;8.076;2022-07-22T07:03:11;4.03;;;2.47;;
6689;SDS011;3382;51.576;8.076;2022-07-22T07:05:37;4.60;;;2.90;;
6689;SDS011;3382;51.576;8.076;2022-07-22T07:08:03;4.00;;;2.80;;
6689;SDS011;3382;51.576;8.076;2022-07-22T07:10:29;5.53;;;2.83;;
6689;SDS011;3382;51.576;8.076;2022-07-22T07:12:55;7.93;;;2.97;;
6689;SDS011;3382;51.576;8.076;2022-07-22T07:15:22;5.83;;;3.10;;
6689;SDS011;3382;51.576;8.076;2022-07-22T07:17:48;7.60;;;3.10;;
6689;SDS011;3382;51.576;8.076;2022-07-22T07:20:16;7.10;;;3.13;;
6689;SDS011;3382;51.576;8.076;2022-07-22T07:22:42;4.80;;;3.00;;
6689;SDS011;3382;51.576;8.076;2022-07-22T07:25:07;6.07;;;3.17;;
6689;SDS011;3382;51.576;8.076;2022-07-22T07:27:34;4.67;;;3.63;;
6689;SDS011;3382;51.576;8.076;2022-07-22T07:30:00;5.67;;;3.50;;
6689;SDS011;3382;51.576;8.076;2022-07-22T07:32:26;7.10;;;4.00;;
6689;SDS011;3382;51.576;8.076;2022-07-22T07:34:52;8.93;;;4.63;;
6689;SDS011;3382;51.576;8.076;2022-07-22T07:37:17;9.97;;;4.33;;
6689;SDS011;3382;51.576;8.076;2022-07-22T07:39:43;5.53;;;2.83;;
6689;SDS011;3382;51.576;8.076;2022-07-22T07:42:09;8.50;;;3.87;;
6689;SDS011;3382;51.576;8.076;2022-07-22T07:44:35;7.23;;;3.83;;
6689;SDS011;3382;51.576;8.076;2022-07-22T07:47:01;5.90;;;3.90;;
6689;SDS011;3382;51.576;8.076;2022-07-22T07:49:26;6.33;;;3.80;;
6689;SDS011;3382;51.576;8.076;2022-07-22T07:51:52;10.87;;;4.87;;
6689;SDS011;3382;51.576;8.076;2022-07-22T07:54:18;6.40;;;4.37;;
6689;SDS011;3382;51.576;8.076;2022-07-22T07:56:44;6.30;;;2.47;;
6689;SDS011;3382;51.576;8.076;2022-07-22T07:59:10;9.60;;;4.23;;
6689;SDS011;3382;51.576;8.076;2022-07-22T08:01:35;9.20;;;3.17;;
6689;SDS011;3382;51.576;8.076;2022-07-22T08:04:01;9.63;;;3.57;;
6689;SDS011;3382;51.576;8.076;2022-07-22T08:06:27;10.23;;;3.73;;
6689;SDS011;3382;51.576;8.076;2022-07-22T08:08:53;7.97;;;3.43;;
6689;SDS011;3382;51.576;8.076;2022-07-22T08:11:19;10.47;;;3.53;;
6689;SDS011;3382;51.576;8.076;2022-07-22T08:13:44;6.17;;;3.17;;
6689;SDS011;3382;51.576;8.076;2022-07-22T08:16:12;5.60;;;3.80;;
6689;SDS011;3382;51.576;8.076;2022-07-22T08:18:37;8.63;;;3.90;;
6689;SDS011;3382;51.576;8.076;2022-07-22T08:21:03;6.63;;;3.53;;
6689;SDS011;3382;51.576;8.076;2022-07-22T08:23:29;5.43;;;3.80;;
6689;SDS011;3382;51.576;8.076;2022-07-22T08:25:55;6.43;;;3.80;;
6689;SDS011;3382;51.576;8.076;2022-07-22T08:28:20;8.97;;;4.13;;
6689;SDS011;3382;51.576;8.076;2022-07-22T08:30:46;9.73;;;3.83;;
6689;SDS011;3382;51.576;8.076;2022-07-22T08:33:12;9.07;;;3.60;;
6689;SDS011;3382;51.576;8.076;2022-07-22T08:35:38;6.77;;;3.80;;
6689;SDS011;3382;51.576;8.076;2022-07-22T08:38:04;9.53;;;4.23;;
6689;SDS011;3382;51.576;8.076;2022-07-22T08:40:29;7.47;;;3.77;;
6689;SDS011;3382;51.576;8.076;2022-07-22T08:42:55;7.53;;;4.23;;
6689;SDS011;3382;51.576;8.076;2022-07-22T08:45:21;10.17;;;4.40;;
6689;SDS011;3382;51.576;8.076;2022-07-22T08:47:48;8.90;;;3.93;;
6689;SDS011;3382;51.576;8.076;2022-07-22T08:50:16;7.73;;;3.60;;
6689;SDS011;3382;51.576;8.076;2022-07-22T08:52:42;7.03;;;3.60;;
6689;SDS011;3382;51.576;8.076;2022-07-22T08:55:08;9.90;;;3.87;;
6689;SDS011;3382;51.576;8.076;2022-07-22T08:57:34;6.80;;;3.97;;
6689;SDS011;3382;51.576;8.076;2022-07-22T09:00:02;6.60;;;3.53;;
6689;SDS011;3382;51.576;8.076;2022-07-22T09:02:36;7.60;;;4.10;;
6689;SDS011;3382;51.576;8.076;2022-07-22T09:05:04;6.77;;;3.97;;
6689;SDS011;3382;51.576;8.076;2022-07-22T09:07:33;4.83;;;3.20;;
6689;SDS011;3382;51.576;8.076;2022-07-22T09:10:01;6.00;;;3.77;;
6689;SDS011;3382;51.576;8.076;2022-07-22T09:12:31;8.57;;;4.03;;
6689;SDS011;3382;51.576;8.076;2022-07-22T09:14:58;6.10;;;3.70;;
6689;SDS011;3382;51.576;8.076;2022-07-22T09:17:29;5.97;;;4.20;;
6689;SDS011;3382;51.576;8.076;2022-07-22T09:19:56;6.07;;;3.67;;
6689;SDS011;3382;51.576;8.076;2022-07-22T09:22:33;4.10;;;3.63;;
6689;SDS011;3382;51.576;8.076;2022-07-22T09:30:36;5.80;;;3.63;;
6689;SDS011;3382;51.576;8.076;2022-07-22T09:33:06;5.20;;;3.90;;
6689;SDS011;3382;51.576;8.076;2022-07-22T09:35:32;7.17;;;4.03;;
6689;SDS011;3382;51.576;8.076;2022-07-22T09:37:59;6.10;;;3.87;;
6689;SDS011;3382;51.576;8.076;2022-07-22T09:40:30;7.37;;;2.63;;
6689;SDS011;3382;51.576;8.076;2022-07-22T09:43:01;5.10;;;2.27;;
6689;SDS011;3382;51.576;8.076;2022-07-22T09:45:32;7.57;;;3.57;;
6689;SDS011;3382;51.576;8.076;2022-07-22T09:47:59;6.23;;;2.40;;
6689;SDS011;3382;51.576;8.076;2022-07-22T09:52:51;5.10;;;3.40;;
6689;SDS011;3382;51.576;8.076;2022-07-22T09:55:20;4.13;;;3.23;;
6689;SDS011;3382;51.576;8.076;2022-07-22T09:57:46;7.00;;;2.77;;
6689;SDS011;3382;51.576;8.076;2022-07-22T10:00:14;4.07;;;2.27;;
6689;SDS011;3382;51.576;8.076;2022-07-22T10:05:08;8.37;;;3.80;;
6689;SDS011;3382;51.576;8.076;2022-07-22T10:07:35;4.93;;;3.60;;
6689;SDS011;3382;51.576;8.076;2022-07-22T10:10:02;5.93;;;3.83;;
6689;SDS011;3382;51.576;8.076;2022-07-22T10:12:29;4.20;;;1.90;;
6689;SDS011;3382;51.576;8.076;2022-07-22T10:14:56;3.30;;;1.90;;
6689;SDS011;3382;51.576;8.076;2022-07-22T10:17:22;5.03;;;1.67;;
6689;SDS011;3382;51.576;8.076;2022-07-22T10:19:48;5.27;;;2.93;;
6689;SDS011;3382;51.576;8.076;2022-07-22T10:25:16;3.47;;;1.93;;
6689;SDS011;3382;51.576;8.076;2022-07-22T10:30:38;3.70;;;1.73;;
6689;SDS011;3382;51.576;8.076;2022-07-22T10:33:12;7.30;;;3.20;;
6689;SDS011;3382;51.576;8.076;2022-07-22T10:38:09;7.57;;;3.67;;
6689;SDS011;3382;51.576;8.076;2022-07-22T10:40:46;4.33;;;2.47;;
6689;SDS011;3382;51.576;8.076;2022-07-22T10:43:30;3.57;;;2.00;;
6689;SDS011;3382;51.576;8.076;2022-07-22T10:46:10;4.93;;;3.27;;
6689;SDS011;3382;51.576;8.076;2022-07-22T10:51:20;3.77;;;2.27;;
6689;SDS011;3382;51.576;8.076;2022-07-22T10:53:59;5.13;;;1.90;;
6689;SDS011;3382;51.576;8.076;2022-07-22T10:59:15;8.10;;;3.27;;
6689;SDS011;3382;51.576;8.076;2022-07-22T11:01:45;4.27;;;2.73;;
6689;SDS011;3382;51.576;8.076;2022-07-22T11:04:16;4.90;;;3.20;;
6689;SDS011;3382;51.576;8.076;2022-07-22T11:06:51;5.73;;;3.83;;
6689;SDS011;3382;51.576;8.076;2022-07-22T11:09:18;8.57;;;3.83;;
6689;SDS011;3382;51.576;8.076;2022-07-22T11:11:47;7.50;;;3.73;;
6689;SDS011;3382;51.576;8.076;2022-07-22T11:16:45;7.20;;;4.70;;
6689;SDS011;3382;51.576;8.076;2022-07-22T11:19:12;5.07;;;2.87;;
6689;SDS011;3382;51.576;8.076;2022-07-22T11:21:38;2.70;;;2.00;;
6689;SDS011;3382;51.576;8.076;2022-07-22T11:24:05;10.77;;;5.37;;
6689;SDS011;3382;51.576;8.076;2022-07-22T11:26:43;8.87;;;5.40;;
6689;SDS011;3382;51.576;8.076;2022-07-22T11:31:43;7.70;;;5.37;;
6689;SDS011;3382;51.576;8.076;2022-07-22T11:34:09;8.17;;;5.17;;
6689;SDS011;3382;51.576;8.076;2022-07-22T11:36:41;3.43;;;2.93;;
6689;SDS011;3382;51.576;8.076;2022-07-22T11:39:09;9.27;;;5.23;;
6689;SDS011;3382;51.576;8.076;2022-07-22T11:41:36;13.47;;;6.00;;
6689;SDS011;3382;51.576;8.076;2022-07-22T11:44:02;8.83;;;6.07;;
6689;SDS011;3382;51.576;8.076;2022-07-22T11:46:29;8.17;;;5.50;;
6689;SDS011;3382;51.576;8.076;2022-07-22T11:49:07;8.03;;;4.93;;
6689;SDS011;3382;51.576;8.076;2022-07-22T11:51:34;5.07;;;2.10;;
6689;SDS011;3382;51.576;8.076;2022-07-22T11:54:02;4.40;;;2.50;;
6689;SDS011;3382;51.576;8.076;2022-07-22T11:56:30;8.30;;;5.57;;
6689;SDS011;3382;51.576;8.076;2022-07-22T11:58:56;9.80;;;5.37;;
6689;SDS011;3382;51.576;8.076;2022-07-22T12:01:23;8.40;;;6.00;;
6689;SDS011;3382;51.576;8.076;2022-07-22T12:03:54;4.27;;;2.80;;
6689;SDS011;3382;51.576;8.076;2022-07-22T12:06:24;10.30;;;6.20;;
6689;SDS011;3382;51.576;8.076;2022-07-22T12:08:52;7.67;;;6.20;;
6689;SDS011;3382;51.576;8.076;2022-07-22T12:11:20;9.17;;;5.97;;
6689;SDS011;3382;51.576;8.076;2022-07-22T12:13:50;10.50;;;7.20;;
6689;SDS011;3382;51.576;8.076;2022-07-22T12:16:17;8.77;;;5.50;;
6689;SDS011;3382;51.576;8.076;2022-07-22T12:18:50;19.10;;;6.57;;
6689;SDS011;3382;51.576;8.076;2022-07-22T12:21:17;7.27;;;5.73;;
6689;SDS011;3382;51.576;8.076;2022-07-22T12:23:49;4.40;;;2.03;;
6689;SDS011;3382;51.576;8.076;2022-07-22T12:26:18;4.03;;;2.70;;
6689;SDS011;3382;51.576;8.076;2022-07-22T12:28:44;7.17;;;4.90;;
6689;SDS011;3382;51.576;8.076;2022-07-22T12:31:10;7.93;;;5.83;;
6689;SDS011;3382;51.576;8.076;2022-07-22T12:33:35;8.27;;;6.50;;
6689;SDS011;3382;51.576;8.076;2022-07-22T12:36:05;10.70;;;7.80;;
6689;SDS011;3382;51.576;8.076;2022-07-22T12:38:32;10.43;;;5.40;;
6689;SDS011;3382;51.576;8.076;2022-07-22T12:43:54;10.00;;;7.67;;
6689;SDS011;3382;51.576;8.076;2022-07-22T12:46:21;6.80;;;5.13;;
6689;SDS011;3382;51.576;8.076;2022-07-22T12:48:50;5.90;;;4.77;;
6689;SDS011;3382;51.576;8.076;2022-07-22T12:51:17;7.03;;;4.43;;
6689;SDS011;3382;51.576;8.076;2022-07-22T12:53:44;10.30;;;6.87;;
6689;SDS011;3382;51.576;8.076;2022-07-22T12:56:09;7.93;;;6.77;;
6689;SDS011;3382;51.576;8.076;2022-07-22T12:58:36;5.53;;;3.90;;
6689;SDS011;3382;51.576;8.076;2022-07-22T13:01:05;6.00;;;4.20;;
6689;SDS011;3382;51.576;8.076;2022-07-22T13:03:31;10.37;;;7.50;;
6689;SDS011;3382;51.576;8.076;2022-07-22T13:05:58;9.23;;;7.13;;
6689;SDS011;3382;51.576;8.076;2022-07-22T13:08:26;8.70;;;5.43;;
6689;SDS011;3382;51.576;8.076;2022-07-22T13:10:52;11.50;;;6.87;;
6689;SDS011;3382;51.576;8.076;2022-07-22T13:13:19;9.13;;;6.60;;
6689;SDS011;3382;51.576;8.076;2022-07-22T13:15:46;10.67;;;5.43;;
6689;SDS011;3382;51.576;8.076;2022-07-22T13:18:12;8.83;;;5.70;;
6689;SDS011;3382;51.576;8.076;2022-07-22T13:20:38;8.07;;;5.90;;
6689;SDS011;3382;51.576;8.076;2022-07-22T13:23:04;10.40;;;5.40;;
6689;SDS011;3382;51.576;8.076;2022-07-22T13:25:30;6.63;;;4.73;;
6689;SDS011;3382;51.576;8.076;2022-07-22T13:27:57;12.70;;;4.93;;
6689;SDS011;3382;51.576;8.076;2022-07-22T13:30:23;5.73;;;4.37;;
6689;SDS011;3382;51.576;8.076;2022-07-22T13:32:49;9.67;;;4.33;;
6689;SDS011;3382;51.576;8.076;2022-07-22T13:35:14;6.33;;;4.53;;
6689;SDS011;3382;51.576;8.076;2022-07-22T13:37:41;12.57;;;6.07;;
6689;SDS011;3382;51.576;8.076;2022-07-22T13:40:07;7.97;;;5.87;;
6689;SDS011;3382;51.576;8.076;2022-07-22T13:42:34;5.10;;;3.50;;
6689;SDS011;3382;51.576;8.076;2022-07-22T13:44:59;6.03;;;3.97;;
6689;SDS011;3382;51.576;8.076;2022-07-22T13:47:25;5.43;;;4.17;;
6689;SDS011;3382;51.576;8.076;2022-07-22T13:49:52;5.73;;;4.00;;
6689;SDS011;3382;51.576;8.076;2022-07-22T13:52:18;5.03;;;3.80;;
6689;SDS011;3382;51.576;8.076;2022-07-22T13:54:44;5.43;;;4.10;;
6689;SDS011;3382;51.576;8.076;2022-07-22T13:57:10;6.00;;;4.90;;
6689;SDS011;3382;51.576;8.076;2022-07-22T13:59:37;5.13;;;3.83;;
6689;SDS011;3382;51.576;8.076;2022-07-22T14:02:03;4.83;;;3.80;;
6689;SDS011;3382;51.576;8.076;2022-07-22T14:04:29;5.67;;;4.43;;
6689;SDS011;3382;51.576;8.076;2022-07-22T14:06:54;6.27;;;4.53;;
6689;SDS011;3382;51.576;8.076;2022-07-22T14:09:20;7.00;;;5.93;;
6689;SDS011;3382;51.576;8.076;2022-07-22T14:11:46;8.63;;;5.80;;
6689;SDS011;3382;51.576;8.076;2022-07-22T14:14:12;7.17;;;5.07;;
6689;SDS011;3382;51.576;8.076;2022-07-22T14:16:38;8.73;;;5.63;;
6689;SDS011;3382;51.576;8.076;2022-07-22T14:19:08;8.70;;;6.60;;
6689;SDS011;3382;51.576;8.076;2022-07-22T14:21:39;8.67;;;6.87;;
6689;SDS011;3382;51.576;8.076;2022-07-22T14:24:07;5.10;;;4.60;;
6689;SDS011;3382;51.576;8.076;2022-07-22T14:26:34;7.97;;;4.43;;
6689;SDS011;3382;51.576;8.076;2022-07-22T14:29:01;6.10;;;4.57;;
6689;SDS011;3382;51.576;8.076;2022-07-22T14:31:27;6.57;;;4.37;;
6689;SDS011;3382;51.576;8.076;2022-07-22T14:33:54;7.20;;;4.97;;
6689;SDS011;3382;51.576;8.076;2022-07-22T14:36:20;6.17;;;4.90;;
6689;SDS011;3382;51.576;8.076;2022-07-22T14:38:47;6.80;;;4.80;;
6689;SDS011;3382;51.576;8.076;2022-07-22T14:41:15;8.83;;;5.73;;
6689;SDS011;3382;51.576;8.076;2022-07-22T14:43:41;5.50;;;4.40;;
6689;SDS011;3382;51.576;8.076;2022-07-22T14:46:07;5.00;;;4.50;;
6689;SDS011;3382;51.576;8.076;2022-07-22T14:48:33;7.83;;;6.43;;
6689;SDS011;3382;51.576;8.076;2022-07-22T14:51:01;6.47;;;4.63;;
6689;SDS011;3382;51.576;8.076;2022-07-22T14:53:27;9.73;;;6.30;;
6689;SDS011;3382;51.576;8.076;2022-07-22T14:55:52;11.27;;;7.17;;
6689;SDS011;3382;51.576;8.076;2022-07-22T14:58:18;6.97;;;5.00;;
6689;SDS011;3382;51.576;8.076;2022-07-22T15:00:44;6.70;;;4.83;;
6689;SDS011;3382;51.576;8.076;2022-07-22T15:03:09;10.03;;;7.10;;
6689;SDS011;3382;51.576;8.076;2022-07-22T15:05:35;8.37;;;6.80;;
6689;SDS011;3382;51.576;8.076;2022-07-22T15:08:01;10.50;;;7.37;;
6689;SDS011;3382;51.576;8.076;2022-07-22T15:10:27;9.17;;;7.83;;
6689;SDS011;3382;51.576;8.076;2022-07-22T15:12:52;8.13;;;4.77;;
6689;SDS011;3382;51.576;8.076;2022-07-22T15:15:18;6.30;;;5.70;;
6689;SDS011;3382;51.576;8.076;2022-07-22T15:17:44;6.77;;;4.67;;
6689;SDS011;3382;51.576;8.076;2022-07-22T15:20:11;8.80;;;7.30;;
6689;SDS011;3382;51.576;8.076;2022-07-22T15:22:37;8.50;;;6.67;;
6689;SDS011;3382;51.576;8.076;2022-07-22T15:25:03;11.53;;;7.00;;
6689;SDS011;3382;51.576;8.076;2022-07-22T15:27:29;12.00;;;6.17;;
6689;SDS011;3382;51.576;8.076;2022-07-22T15:29:55;9.27;;;6.03;;
6689;SDS011;3382;51.576;8.076;2022-07-22T15:32:20;6.93;;;5.60;;
6689;SDS011;3382;51.576;8.076;2022-07-22T15:34:46;5.13;;;3.87;;
6689;SDS011;3382;51.576;8.076;2022-07-22T15:37:11;8.73;;;4.10;;
6689;SDS011;3382;51.576;8.076;2022-07-22T15:39:37;5.93;;;4.07;;
6689;SDS011;3382;51.576;8.076;2022-07-22T15:42:03;7.43;;;5.83;;
6689;SDS011;3382;51.576;8.076;2022-07-22T15:44:29;7.63;;;5.97;;
6689;SDS011;3382;51.576;8.076;2022-07-22T15:46:55;13.53;;;4.90;;
6689;SDS011;3382;51.576;8.076;2022-07-22T15:49:21;7.37;;;4.17;;
6689;SDS011;3382;51.576;8.076;2022-07-22T15:51:48;9.13;;;6.67;;
6689;SDS011;3382;51.576;8.076;2022-07-22T15:54:14;9.87;;;7.43;;